Flugplatz Schwabmünchen

Für EDNS sind keine METAR/TAF Berichte vorhanden.
Es werden die Flugwettermeldungen vom Flugplatz Lechfeld Airport in 11 km Entfernung angezeigt.

Bericht für ETSL

vom 28.02. um 02:45 UTC

Wind 18 kt aus 260° in Böen 30 kt

Sichtweite 10 km oder mehr

schwacher Schnee

aufgelockert bewölkt in 1000 ft

aufgebrochene Bewölkung in 2500 ft

Temperatur 0.0°C

Taupunkt -2.0°C

Luftfeuchtigkeit 86%

Luftdruck 1012 hPa

ETSL 280245Z 26018G30KT 9999 -SN SCT010 BKN025 00/M02 Q1012 BLU
Keine Prognose (TAF) verfügbar.
Impressum